Observation data for Floydada on 09/11/2017      Previous  Date  Next       Current Mesonet Observations  Soil Data  Daily Summary Page  Observations in Plain Language
KFLS 110500Z 13005KT 14/08 A3024 RMK A01 T01440084  RH  068%=      5-min Rain = 0
KFLS 110505Z 14006KT 14/08 A3024 RMK A01 T01430083  RH  068%=      5-min Rain = 0
KFLS 110510Z 14006KT 14/08 A3024 RMK A01 T01430083  RH  069%=      5-min Rain = 0
KFLS 110515Z 13006KT 14/08 A3024 RMK A01 T01420083  RH  069%=      5-min Rain = 0
KFLS 110520Z 13006KT 14/08 A3024 RMK A01 T01420083  RH  069%=      5-min Rain = 0
KFLS 110525Z 13006KT 14/08 A3024 RMK A01 T01410083  RH  069%=      5-min Rain = 0
KFLS 110530Z 12007KT 15/08 A3024 RMK A01 T01450083  RH  067%=      5-min Rain = 0
KFLS 110535Z 12007KT 14/08 A3024 RMK A01 T01430083  RH  068%=      5-min Rain = 0
KFLS 110540Z 13006KT 14/08 A3024 RMK A01 T01440083  RH  068%=      5-min Rain = 0
KFLS 110545Z 13006KT 14/08 A3024 RMK A01 T01420083  RH  068%=      5-min Rain = 0
KFLS 110550Z 13005KT 14/08 A3024 RMK A01 T01410082  RH  069%=      5-min Rain = 0
KFLS 110555Z 13005KT 14/08 A3024 RMK A01 T01420081  RH  068%=      5-min Rain = 0
KFLS 110600Z 13005KT 14/08 A3024 RMK A01 T01410081  RH  068%=      5-min Rain = 0
KFLS 110605Z 13005KT 14/08 A3024 RMK A01 T01420080  RH  067%=      5-min Rain = 0
KFLS 110610Z 14004KT 14/08 A3024 RMK A01 T01420079  RH  067%=      5-min Rain = 0
KFLS 110615Z 15004KT 14/08 A3024 RMK A01 T01400079  RH  068%=      5-min Rain = 0
KFLS 110620Z 15004KT 14/08 A3024 RMK A01 T01380079  RH  069%=      5-min Rain = 0
KFLS 110625Z 14004KT 14/08 A3024 RMK A01 T01380080  RH  069%=      5-min Rain = 0
KFLS 110630Z 14004KT 14/08 A3023 RMK A01 T01390080  RH  069%=      5-min Rain = 0
KFLS 110635Z 14003KT 14/08 A3023 RMK A01 T01400080  RH  068%=      5-min Rain = 0
KFLS 110640Z 14003KT 14/08 A3023 RMK A01 T01400080  RH  068%=      5-min Rain = 0
KFLS 110645Z 13003KT 14/08 A3023 RMK A01 T01390080  RH  069%=      5-min Rain = 0
KFLS 110650Z 13002KT 14/08 A3023 RMK A01 T01390080  RH  068%=      5-min Rain = 0
KFLS 110655Z 13002KT 14/08 A3023 RMK A01 T01380080  RH  069%=      5-min Rain = 0
KFLS 110700Z 13003KT 14/08 A3023 RMK A01 T01370079  RH  069%=      5-min Rain = 0
KFLS 110705Z 14004KT 14/08 A3023 RMK A01 T01350079  RH  070%=      5-min Rain = 0
KFLS 110710Z 14004KT 14/08 A3023 RMK A01 T01370080  RH  070%=      5-min Rain = 0
KFLS 110715Z 14004KT 14/08 A3023 RMK A01 T01380080  RH  069%=      5-min Rain = 0
KFLS 110720Z 14004KT 14/08 A3023 RMK A01 T01390080  RH  068%=      5-min Rain = 0
KFLS 110725Z 14003KT 14/08 A3023 RMK A01 T01390079  RH  068%=      5-min Rain = 0
KFLS 110730Z 13003KT 14/08 A3023 RMK A01 T01390079  RH  068%=      5-min Rain = 0
KFLS 110735Z 13003KT 14/08 A3023 RMK A01 T01390079  RH  068%=      5-min Rain = 0
KFLS 110740Z 13003KT 14/08 A3023 RMK A01 T01380079  RH  069%=      5-min Rain = 0
KFLS 110745Z 12003KT 14/08 A3023 RMK A01 T01370079  RH  069%=      5-min Rain = 0
KFLS 110750Z 13003KT 14/08 A3023 RMK A01 T01360079  RH  069%=      5-min Rain = 0
KFLS 110755Z 12004KT 14/08 A3023 RMK A01 T01350079  RH  070%=      5-min Rain = 0
KFLS 110800Z 12004KT 14/08 A3023 RMK A01 T01350079  RH  070%=      5-min Rain = 0
KFLS 110805Z 13004KT 14/08 A3022 RMK A01 T01360079  RH  070%=      5-min Rain = 0
KFLS 110810Z 13004KT 13/08 A3022 RMK A01 T01340079  RH  070%=      5-min Rain = 0
KFLS 110815Z 14004KT 13/08 A3022 RMK A01 T01320078  RH  071%=      5-min Rain = 0
KFLS 110820Z 15004KT 13/08 A3022 RMK A01 T01310078  RH  071%=      5-min Rain = 0
KFLS 110825Z 16004KT 13/08 A3022 RMK A01 T01290078  RH  072%=      5-min Rain = 0
KFLS 110830Z 16005KT 13/08 A3022 RMK A01 T01280078  RH  072%=      5-min Rain = 0
KFLS 110835Z 16005KT 13/08 A3022 RMK A01 T01280078  RH  073%=      5-min Rain = 0
KFLS 110840Z 15006KT 13/08 A3022 RMK A01 T01280081  RH  074%=      5-min Rain = 0
KFLS 110845Z 15007KT 13/08 A3022 RMK A01 T01310083  RH  074%=      5-min Rain = 0
KFLS 110850Z 16007KT 13/08 A3022 RMK A01 T01320084  RH  074%=      5-min Rain = 0
KFLS 110855Z 16006KT 13/09 A3022 RMK A01 T01320085  RH  074%=      5-min Rain = 0
KFLS 110900Z 16006KT 13/08 A3022 RMK A01 T01320084  RH  074%=      5-min Rain = 0
KFLS 110905Z 16006KT 13/08 A3022 RMK A01 T01310083  RH  074%=      5-min Rain = 0
KFLS 110910Z 16006KT 13/08 A3022 RMK A01 T01290082  RH  074%=      5-min Rain = 0
KFLS 110915Z 16006KT 13/08 A3022 RMK A01 T01280082  RH  075%=      5-min Rain = 0
KFLS 110920Z 17006KT 13/08 A3022 RMK A01 T01280082  RH  075%=      5-min Rain = 0
KFLS 110925Z 17006KT 13/08 A3021 RMK A01 T01280082  RH  075%=      5-min Rain = 0
KFLS 110930Z 17006KT 13/08 A3022 RMK A01 T01290084  RH  075%=      5-min Rain = 0
KFLS 110935Z 17006KT 13/09 A3022 RMK A01 T01330085  RH  074%=      5-min Rain = 0
KFLS 110940Z 17007KT 14/09 A3022 RMK A01 T01350086  RH  073%=      5-min Rain = 0
KFLS 110945Z 18006KT 14/09 A3022 RMK A01 T01370086  RH  073%=      5-min Rain = 0
KFLS 110950Z 18006KT 14/09 A3022 RMK A01 T01380087  RH  072%=      5-min Rain = 0
KFLS 110955Z 18006KT 14/09 A3022 RMK A01 T01380086  RH  072%=      5-min Rain = 0
KFLS 111000Z 17006KT 14/09 A3022 RMK A01 T01380086  RH  072%=      5-min Rain = 0
KFLS 111005Z 17005KT 14/09 A3022 RMK A01 T01370086  RH  072%=      5-min Rain = 0
KFLS 111010Z 17005KT 14/09 A3022 RMK A01 T01370086  RH  072%=      5-min Rain = 0
KFLS 111015Z 17005KT 14/09 A3022 RMK A01 T01370085  RH  072%=      5-min Rain = 0
KFLS 111020Z 17005KT 14/08 A3022 RMK A01 T01360084  RH  072%=      5-min Rain = 0
KFLS 111025Z 17004KT 13/08 A3022 RMK A01 T01340084  RH  073%=      5-min Rain = 0
KFLS 111030Z 17004KT 13/08 A3022 RMK A01 T01330084  RH  073%=      5-min Rain = 0
KFLS 111035Z 17004KT 13/08 A3022 RMK A01 T01320083  RH  073%=      5-min Rain = 0
KFLS 111040Z 17003KT 13/08 A3022 RMK A01 T01300082  RH  074%=      5-min Rain = 0
KFLS 111045Z 17002KT 13/08 A3022 RMK A01 T01280082  RH  075%=      5-min Rain = 0
KFLS 111050Z 17002KT 13/08 A3022 RMK A01 T01260082  RH  076%=      5-min Rain = 0
KFLS 111055Z 18002KT 13/08 A3022 RMK A01 T01260082  RH  076%=      5-min Rain = 0
KFLS 111100Z 19002KT 13/08 A3022 RMK A01 T01260083  RH  076%=      5-min Rain = 0
KFLS 111105Z 18002KT 13/08 A3022 RMK A01 T01250083  RH  076%=      5-min Rain = 0
KFLS 111110Z 18002KT 12/08 A3023 RMK A01 T01240082  RH  077%=      5-min Rain = 0
KFLS 111115Z 18001KT 12/08 A3023 RMK A01 T01220082  RH  077%=      5-min Rain = 0
KFLS 111120Z 18001KT 12/08 A3023 RMK A01 T01190080  RH  079%=      5-min Rain = 0
KFLS 111125Z 18001KT 12/08 A3023 RMK A01 T01170081  RH  080%=      5-min Rain = 0
KFLS 111130Z 18002KT 12/08 A3023 RMK A01 T01150080  RH  080%=      5-min Rain = 0
KFLS 111135Z 19002KT 11/08 A3023 RMK A01 T01130079  RH  081%=      5-min Rain = 0
KFLS 111140Z 20002KT 11/08 A3023 RMK A01 T01090077  RH  082%=      5-min Rain = 0
KFLS 111145Z 20002KT 11/08 A3023 RMK A01 T01060077  RH  084%=      5-min Rain = 0
KFLS 111150Z 20003KT 10/08 A3023 RMK A01 T01030075  RH  084%=      5-min Rain = 0
KFLS 111155Z 20003KT 10/08 A3023 RMK A01 T01020075  RH  085%=      5-min Rain = 0
KFLS 111200Z 20003KT 10/08 A3023 RMK A01 T01030078  RH  086%=      5-min Rain = 0
KFLS 111205Z 21003KT 10/08 A3023 RMK A01 T01040078  RH  085%=      5-min Rain = 0
KFLS 111210Z 21003KT 10/08 A3023 RMK A01 T01030077  RH  085%=      5-min Rain = 0
KFLS 111215Z 22003KT 10/08 A3023 RMK A01 T01020077  RH  085%=      5-min Rain = 0
KFLS 111220Z 23003KT 10/07 A3023 RMK A01 T01000074  RH  085%=      5-min Rain = 0
KFLS 111225Z 22003KT 10/07 A3023 RMK A01 T00970073  RH  086%=      5-min Rain = 0
KFLS 111230Z 23003KT 10/07 A3023 RMK A01 T00950073  RH  087%=      5-min Rain = 0
KFLS 111235Z 24004KT 09/07 A3023 RMK A01 T00940073  RH  088%=      5-min Rain = 0
KFLS 111240Z 24004KT 09/07 A3023 RMK A01 T00940074  RH  089%=      5-min Rain = 0
KFLS 111245Z 24005KT 09/08 A3023 RMK A01 T00940076  RH  090%=      5-min Rain = 0
KFLS 111250Z 25005KT 10/08 A3023 RMK A01 T00980081  RH  091%=      5-min Rain = 0
KFLS 111255Z 25005KT 10/09 A3023 RMK A01 T01030085  RH  090%=      5-min Rain = 0
KFLS 111300Z 25005KT 11/09 A3023 RMK A01 T01060086  RH  089%=      5-min Rain = 0
KFLS 111305Z 25004KT 11/09 A3023 RMK A01 T01090088  RH  088%=      5-min Rain = 0
KFLS 111310Z 25004KT 11/09 A3024 RMK A01 T01130090  RH  088%=      5-min Rain = 0
KFLS 111315Z 25004KT 12/09 A3024 RMK A01 T01160093  RH  087%=      5-min Rain = 0
KFLS 111320Z 25004KT 12/10 A3023 RMK A01 T01200096  RH  086%=      5-min Rain = 0
KFLS 111325Z 25003KT 13/10 A3024 RMK A01 T01250098  RH  085%=      5-min Rain = 0
KFLS 111330Z 24002KT 13/10 A3024 RMK A01 T01310100  RH  083%=      5-min Rain = 0
KFLS 111335Z 23003KT 14/10 A3024 RMK A01 T01370099  RH  079%=      5-min Rain = 0
KFLS 111340Z 23002KT 14/10 A3024 RMK A01 T01410100  RH  078%=      5-min Rain = 0
KFLS 111345Z 22002KT 15/10 A3024 RMK A01 T01470104  RH  077%=      5-min Rain = 0
KFLS 111350Z 22003KT 15/11 A3024 RMK A01 T01540106  RH  074%=      5-min Rain = 0
KFLS 111355Z 22003KT 16/10 A3024 RMK A01 T01610104  RH  070%=      5-min Rain = 0
KFLS 111400Z 22005KT 17/10 A3024 RMK A01 T01680101  RH  066%=      5-min Rain = 0
KFLS 111405Z 22004KT 17/10 A3024 RMK A01 T01730102  RH  064%=      5-min Rain = 0
KFLS 111410Z 23005KT 18/10 A3024 RMK A01 T01760101  RH  062%=      5-min Rain = 0
KFLS 111415Z 23005KT 18/10 A3024 RMK A01 T01820103  RH  061%=      5-min Rain = 0
KFLS 111420Z 23005KT 19/10 A3024 RMK A01 T01850101  RH  059%=      5-min Rain = 0
KFLS 111425Z 22005KT 19/10 A3024 RMK A01 T01870099  RH  057%=      5-min Rain = 0
KFLS 111430Z 23006KT 19/10 A3024 RMK A01 T01900100  RH  057%=      5-min Rain = 0
KFLS 111435Z 23006KT 19/10 A3024 RMK A01 T01940099  RH  055%=      5-min Rain = 0
KFLS 111440Z 24006KT 20/10 A3024 RMK A01 T01970099  RH  054%=      5-min Rain = 0
KFLS 111445Z 24006KT 20/10 A3024 RMK A01 T01990100  RH  054%=      5-min Rain = 0
KFLS 111450Z 24007KT 20/10 A3024 RMK A01 T02020100  RH  053%=      5-min Rain = 0
KFLS 111455Z 24008KT 20/10 A3025 RMK A01 T02030099  RH  052%=      5-min Rain = 0
KFLS 111500Z 24008KT 20/10 A3025 RMK A01 T02040100  RH  052%=      5-min Rain = 0
KFLS 111505Z 24007KT 21/10 A3025 RMK A01 T02090103  RH  051%=      5-min Rain = 0
KFLS 111510Z 23008KT 21/10 A3024 RMK A01 T02130101  RH  049%=      5-min Rain = 0
KFLS 111515Z 21008KT 22/10 A3024 RMK A01 T02150100  RH  049%=      5-min Rain = 0
KFLS 111520Z 23009KT 22/10 A3024 RMK A01 T02170100  RH  048%=      5-min Rain = 0
KFLS 111525Z 23008KT 22/10 A3024 RMK A01 T02180100  RH  048%=      5-min Rain = 0
KFLS 111530Z 24008KT 22/10 A3024 RMK A01 T02220099  RH  046%=      5-min Rain = 0
KFLS 111535Z 23009KT 22/10 A3024 RMK A01 T02240099  RH  046%=      5-min Rain = 0
KFLS 111540Z 23007KT 23/10 A3025 RMK A01 T02260100  RH  046%=      5-min Rain = 0
KFLS 111545Z 23007KT 23/10 A3025 RMK A01 T02320101  RH  044%=      5-min Rain = 0
KFLS 111550Z 23007KT 23/10 A3025 RMK A01 T02330101  RH  044%=      5-min Rain = 0
KFLS 111555Z 23008KT 23/10 A3024 RMK A01 T02320099  RH  044%=      5-min Rain = 0
KFLS 111600Z 24008KT 24/10 A3024 RMK A01 T02350101  RH  043%=      5-min Rain = 0
KFLS 111605Z 24008KT 24/10 A3024 RMK A01 T02360098  RH  042%=      5-min Rain = 0
KFLS 111610Z 25007KT 24/10 A3024 RMK A01 T02390101  RH  042%=      5-min Rain = 0
KFLS 111615Z 25007KT 24/10 A3024 RMK A01 T02420100  RH  041%=      5-min Rain = 0
KFLS 111620Z 25007KT 24/10 A3024 RMK A01 T02430100  RH  041%=      5-min Rain = 0
KFLS 111625Z 27008KT 25/10 A3024 RMK A01 T02460098  RH  040%=      5-min Rain = 0
KFLS 111630Z 27007KT 24/10 A3024 RMK A01 T02430098  RH  040%=      5-min Rain = 0
KFLS 111635Z 26008KT 25/10 A3024 RMK A01 T02480098  RH  039%=      5-min Rain = 0
KFLS 111640Z 26006G11KT 25/10 A3024 RMK A01 T02480097  RH  039%=      5-min Rain = 0
KFLS 111645Z 27007KT 25/10 A3024 RMK A01 T02520096  RH  038%=      5-min Rain = 0
KFLS 111650Z 25007KT 25/10 A3024 RMK A01 T02520095  RH  038%=      5-min Rain = 0
KFLS 111655Z 25006KT 25/10 A3024 RMK A01 T02510097  RH  038%=      5-min Rain = 0
KFLS 111700Z 25007KT 26/10 A3024 RMK A01 T02560096  RH  037%=      5-min Rain = 0
KFLS 111705Z 24006KT 26/10 A3024 RMK A01 T02580098  RH  037%=      5-min Rain = 0
KFLS 111710Z 24007KT 26/10 A3024 RMK A01 T02600095  RH  036%=      5-min Rain = 0
KFLS 111715Z 25005KT 26/10 A3023 RMK A01 T02590097  RH  037%=      5-min Rain = 0
KFLS 111720Z 25006G11KT 26/10 A3023 RMK A01 T02610097  RH  036%=      5-min Rain = 0
KFLS 111725Z 23007KT 26/10 A3023 RMK A01 T02620096  RH  036%=      5-min Rain = 0
KFLS 111730Z 24005KT 26/09 A3023 RMK A01 T02620093  RH  035%=      5-min Rain = 0
KFLS 111735Z 25006KT 26/09 A3023 RMK A01 T02620094  RH  035%=      5-min Rain = 0
KFLS 111740Z 24005G10KT 26/10 A3023 RMK A01 T02630096  RH  035%=      5-min Rain = 0
KFLS 111745Z 26004G10KT 26/09 A3022 RMK A01 T02640094  RH  035%=      5-min Rain = 0
KFLS 111750Z 24005KT 26/09 A3022 RMK A01 T02640092  RH  034%=      5-min Rain = 0
KFLS 111755Z 26004KT 26/09 A3022 RMK A01 T02630093  RH  035%=      5-min Rain = 0
KFLS 111800Z 26005KT 27/09 A3022 RMK A01 T02700094  RH  034%=      5-min Rain = 0
KFLS 111805Z 24004G9KT 27/09 A3022 RMK A01 T02710091  RH  033%=      5-min Rain = 0
KFLS 111810Z 24003G8KT 27/09 A3021 RMK A01 T02700091  RH  033%=      5-min Rain = 0
KFLS 111815Z 23005KT 27/09 A3021 RMK A01 T02720090  RH  032%=      5-min Rain = 0
KFLS 111820Z 25003KT 27/09 A3021 RMK A01 T02700091  RH  033%=      5-min Rain = 0
KFLS 111825Z 33004KT 28/09 A3021 RMK A01 T02780089  RH  031%=      5-min Rain = 0
KFLS 111830Z 33004KT 28/09 A3021 RMK A01 T02770087  RH  031%=      5-min Rain = 0
KFLS 111835Z 04004G10KT 28/09 A302 RMK A01 T02780087  RH  030%=      5-min Rain = 0
KFLS 111840Z 07002KT 28/09 A302 RMK A01 T02800089  RH  031%=      5-min Rain = 0
KFLS 111845Z 05003KT 29/09 A302 RMK A01 T02870091  RH  030%=      5-min Rain = 0
KFLS 111850Z 28006G12KT 29/09 A302 RMK A01 T02880089  RH  029%=      5-min Rain = 0
KFLS 111855Z 32004KT 28/09 A3019 RMK A01 T02830089  RH  030%=      5-min Rain = 0
KFLS 111900Z 31006KT 29/09 A3019 RMK A01 T02860088  RH  029%=      5-min Rain = 0
KFLS 111905Z 36005KT 29/09 A3019 RMK A01 T02900088  RH  029%=      5-min Rain = 0
KFLS 111910Z 36003KT 29/09 A3019 RMK A01 T02870085  RH  029%=      5-min Rain = 0
KFLS 111915Z 31004KT 29/09 A3019 RMK A01 T02870085  RH  029%=      5-min Rain = 0
KFLS 111920Z 26004G10KT 29/08 A3018 RMK A01 T02870083  RH  028%=      5-min Rain = 0
KFLS 111925Z 27002G7KT 29/08 A3018 RMK A01 T02870083  RH  028%=      5-min Rain = 0
KFLS 111930Z 33006KT 29/09 A3018 RMK A01 T02890085  RH  028%=      5-min Rain = 0
KFLS 111935Z 35005KT 29/09 A3018 RMK A01 T02920085  RH  028%=      5-min Rain = 0
KFLS 111940Z 20001KT 29/08 A3017 RMK A01 T02870081  RH  028%=      5-min Rain = 0
KFLS 111945Z 22002KT 29/08 A3017 RMK A01 T02880084  RH  028%=      5-min Rain = 0
KFLS 111950Z 29004KT 30/09 A3017 RMK A01 T02960085  RH  027%=      5-min Rain = 0
KFLS 111955Z 36005G14KT 30/09 A3017 RMK A01 T02960086  RH  027%=      5-min Rain = 0
KFLS 112000Z 34005KT 30/08 A3017 RMK A01 T02980084  RH  027%=      5-min Rain = 0
KFLS 112005Z 28002KT 30/08 A3016 RMK A01 T02950082  RH  027%=      5-min Rain = 0
KFLS 112010Z 34006KT 30/09 A3016 RMK A01 T02990085  RH  027%=      5-min Rain = 0
KFLS 112015Z 33007KT 30/09 A3016 RMK A01 T02990085  RH  027%=      5-min Rain = 0
KFLS 112020Z 32007KT 30/09 A3016 RMK A01 T03000085  RH  026%=      5-min Rain = 0
KFLS 112025Z 31007KT 30/08 A3015 RMK A01 T02990083  RH  026%=      5-min Rain = 0
KFLS 112030Z 00007KT 30/08 A3015 RMK A01 T03000084  RH  026%=      5-min Rain = 0
KFLS 112035Z 05002KT 30/08 A3015 RMK A01 T02980081  RH  026%=      5-min Rain = 0
KFLS 112040Z 15003KT 30/08 A3015 RMK A01 T03000082  RH  026%=      5-min Rain = 0
KFLS 112045Z 16005KT 30/08 A3014 RMK A01 T03010082  RH  026%=      5-min Rain = 0
KFLS 112050Z 20003KT 30/08 A3014 RMK A01 T03010082  RH  026%=      5-min Rain = 0
KFLS 112055Z 33004KT 30/08 A3014 RMK A01 T03020083  RH  026%=      5-min Rain = 0
KFLS 112100Z 34004KT 30/08 A3014 RMK A01 T03010082  RH  026%=      5-min Rain = 0
KFLS 112105Z 32005KT 30/08 A3013 RMK A01 T03010083  RH  026%=      5-min Rain = 0
KFLS 112110Z 33006KT 30/08 A3013 RMK A01 T03030083  RH  026%=      5-min Rain = 0
KFLS 112115Z 01006KT 31/08 A3013 RMK A01 T03060084  RH  025%=      5-min Rain = 0
KFLS 112120Z 01004KT 30/08 A3013 RMK A01 T03040080  RH  025%=      5-min Rain = 0
KFLS 112125Z 31004KT 30/08 A3013 RMK A01 T03020082  RH  026%=      5-min Rain = 0
KFLS 112130Z 31002G8KT 30/08 A3012 RMK A01 T03010081  RH  026%=      5-min Rain = 0
KFLS 112135Z 32005KT 30/08 A3012 RMK A01 T03040082  RH  025%=      5-min Rain = 0
KFLS 112140Z 33004KT 30/08 A3012 RMK A01 T03040083  RH  026%=      5-min Rain = 0
KFLS 112145Z 00003KT 31/08 A3012 RMK A01 T03080081  RH  025%=      5-min Rain = 0
KFLS 112150Z 03006KT 31/08 A3012 RMK A01 T03080083  RH  025%=      5-min Rain = 0
KFLS 112155Z 34003G8KT 31/08 A3012 RMK A01 T03090080  RH  024%=      5-min Rain = 0
KFLS 112200Z 02005G10KT 31/08 A3012 RMK A01 T03080081  RH  025%=      5-min Rain = 0
KFLS 112205Z 02007KT 31/08 A3011 RMK A01 T03100083  RH  025%=      5-min Rain = 0
KFLS 112210Z 03006KT 31/08 A3011 RMK A01 T03070081  RH  025%=      5-min Rain = 0
KFLS 112215Z 02004KT 31/08 A3011 RMK A01 T03060080  RH  025%=      5-min Rain = 0
KFLS 112220Z 34005KT 31/08 A3011 RMK A01 T03060081  RH  025%=      5-min Rain = 0
KFLS 112225Z 31005KT 30/08 A3011 RMK A01 T03040082  RH  025%=      5-min Rain = 0
KFLS 112230Z 32004KT 31/08 A3011 RMK A01 T03060081  RH  025%=      5-min Rain = 0
KFLS 112235Z 29002KT 31/08 A3011 RMK A01 T03060080  RH  025%=      5-min Rain = 0
KFLS 112240Z 12002KT 31/08 A3011 RMK A01 T03110083  RH  025%=      5-min Rain = 0
KFLS 112245Z 06004G9KT 31/08 A3011 RMK A01 T03110084  RH  025%=      5-min Rain = 0
KFLS 112250Z 04005G10KT 31/08 A3011 RMK A01 T03060083  RH  025%=      5-min Rain = 0
KFLS 112255Z 07003G8KT 30/08 A3011 RMK A01 T03030081  RH  025%=      5-min Rain = 0
KFLS 112300Z 06007KT 30/09 A3011 RMK A01 T03010085  RH  026%=      5-min Rain = 0
KFLS 112305Z 07008KT 30/09 A3011 RMK A01 T02990085  RH  027%=      5-min Rain = 0
KFLS 112310Z 09007KT 30/09 A3011 RMK A01 T02990086  RH  027%=      5-min Rain = 0
KFLS 112315Z 09006G11KT 30/08 A3011 RMK A01 T02980084  RH  027%=      5-min Rain = 0
KFLS 112320Z 09006KT 30/08 A3011 RMK A01 T02970084  RH  027%=      5-min Rain = 0
KFLS 112325Z 09003KT 30/08 A3011 RMK A01 T02960084  RH  027%=      5-min Rain = 0
KFLS 112330Z 06007KT 30/09 A3011 RMK A01 T02960085  RH  027%=      5-min Rain = 0
KFLS 112335Z 05007KT 30/09 A3011 RMK A01 T02950085  RH  027%=      5-min Rain = 0
KFLS 112340Z 05008KT 29/09 A301 RMK A01 T02920086  RH  028%=      5-min Rain = 0
KFLS 112345Z 07007KT 29/09 A301 RMK A01 T02900086  RH  028%=      5-min Rain = 0
KFLS 112350Z 09005KT 29/09 A301 RMK A01 T02890088  RH  029%=      5-min Rain = 0
KFLS 112355Z 06006KT 29/09 A3011 RMK A01 T02880087  RH  029%=      5-min Rain = 0
KFLS 120000Z 07005KT 29/09 A3011 RMK A01 T02860088  RH  029%=      5-min Rain = 0
KFLS 120005Z 07005KT 29/09 A3011 RMK A01 T02850089  RH  030%=      5-min Rain = 0
KFLS 120010Z 07007KT 28/09 A3011 RMK A01 T02810090  RH  031%=      5-min Rain = 0
KFLS 120015Z 09007KT 28/09 A301 RMK A01 T02770091  RH  032%=      5-min Rain = 0
KFLS 120020Z 09007KT 27/09 A301 RMK A01 T02720093  RH  033%=      5-min Rain = 0
KFLS 120025Z 09008KT 27/09 A301 RMK A01 T02680093  RH  034%=      5-min Rain = 0
KFLS 120030Z 10007KT 26/10 A301 RMK A01 T02640095  RH  035%=      5-min Rain = 0
KFLS 120035Z 10007KT 26/10 A301 RMK A01 T02590096  RH  036%=      5-min Rain = 0
KFLS 120040Z 10007KT 25/10 A301 RMK A01 T02540095  RH  037%=      5-min Rain = 0
KFLS 120045Z 10007KT 25/09 A301 RMK A01 T02490094  RH  038%=      5-min Rain = 0
KFLS 120050Z 10006KT 25/09 A301 RMK A01 T02450094  RH  039%=      5-min Rain = 0
KFLS 120055Z 09006KT 24/10 A301 RMK A01 T02390097  RH  041%=      5-min Rain = 0
KFLS 120100Z 09007KT 23/10 A301 RMK A01 T02330098  RH  043%=      5-min Rain = 0
KFLS 120105Z 09007KT 23/10 A301 RMK A01 T02280098  RH  044%=      5-min Rain = 0
KFLS 120110Z 09007KT 22/10 A301 RMK A01 T02240099  RH  046%=      5-min Rain = 0
KFLS 120115Z 09007KT 22/10 A301 RMK A01 T02200100  RH  047%=      5-min Rain = 0
KFLS 120120Z 10007KT 22/10 A301 RMK A01 T02160100  RH  048%=      5-min Rain = 0
KFLS 120125Z 10007KT 21/10 A3011 RMK A01 T02130101  RH  050%=      5-min Rain = 0
KFLS 120130Z 09006KT 21/10 A3011 RMK A01 T02090102  RH  051%=      5-min Rain = 0
KFLS 120135Z 10006KT 21/10 A3011 RMK A01 T02070101  RH  052%=      5-min Rain = 0
KFLS 120140Z 09007KT 21/10 A3011 RMK A01 T02060101  RH  052%=      5-min Rain = 0
KFLS 120145Z 08006KT 20/10 A3011 RMK A01 T02040101  RH  053%=      5-min Rain = 0
KFLS 120150Z 11006KT 20/10 A3012 RMK A01 T02000102  RH  054%=      5-min Rain = 0
KFLS 120155Z 11006KT 20/10 A3012 RMK A01 T01970104  RH  056%=      5-min Rain = 0
KFLS 120200Z 10006KT 20/10 A3012 RMK A01 T01950103  RH  056%=      5-min Rain = 0
KFLS 120205Z 10006KT 20/10 A3012 RMK A01 T01950103  RH  056%=      5-min Rain = 0
KFLS 120210Z 11007KT 19/10 A3012 RMK A01 T01940104  RH  057%=      5-min Rain = 0
KFLS 120215Z 10008KT 19/10 A3012 RMK A01 T01920104  RH  058%=      5-min Rain = 0
KFLS 120220Z 09008KT 19/11 A3012 RMK A01 T01910105  RH  058%=      5-min Rain = 0
KFLS 120225Z 09007KT 19/11 A3012 RMK A01 T01900106  RH  059%=      5-min Rain = 0
KFLS 120230Z 10006KT 19/11 A3013 RMK A01 T01880106  RH  060%=      5-min Rain = 0
KFLS 120235Z 10007KT 19/11 A3013 RMK A01 T01870106  RH  060%=      5-min Rain = 0
KFLS 120240Z 10007KT 19/11 A3013 RMK A01 T01850107  RH  061%=      5-min Rain = 0
KFLS 120245Z 10007KT 18/11 A3013 RMK A01 T01840107  RH  062%=      5-min Rain = 0
KFLS 120250Z 10007KT 18/11 A3013 RMK A01 T01830107  RH  062%=      5-min Rain = 0
KFLS 120255Z 10007KT 18/11 A3013 RMK A01 T01820106  RH  062%=      5-min Rain = 0
KFLS 120300Z 11006KT 18/11 A3014 RMK A01 T01820105  RH  062%=      5-min Rain = 0
KFLS 120305Z 11006KT 18/10 A3014 RMK A01 T01810104  RH  062%=      5-min Rain = 0
KFLS 120310Z 11006KT 18/10 A3014 RMK A01 T01800103  RH  062%=      5-min Rain = 0
KFLS 120315Z 10006KT 18/10 A3013 RMK A01 T01800103  RH  062%=      5-min Rain = 0
KFLS 120320Z 11005KT 18/10 A3014 RMK A01 T01800103  RH  062%=      5-min Rain = 0
KFLS 120325Z 13005KT 18/10 A3014 RMK A01 T01780104  RH  063%=      5-min Rain = 0
KFLS 120330Z 12005KT 18/11 A3014 RMK A01 T01800105  RH  063%=      5-min Rain = 0
KFLS 120335Z 14005KT 18/10 A3014 RMK A01 T01790104  RH  062%=      5-min Rain = 0
KFLS 120340Z 12005KT 18/11 A3014 RMK A01 T01790105  RH  063%=      5-min Rain = 0
KFLS 120345Z 13005KT 18/11 A3014 RMK A01 T01790105  RH  063%=      5-min Rain = 0
KFLS 120350Z 13005KT 18/10 A3014 RMK A01 T01790104  RH  063%=      5-min Rain = 0
KFLS 120355Z 14006KT 18/10 A3014 RMK A01 T01780104  RH  063%=      5-min Rain = 0
KFLS 120400Z 13006KT 18/10 A3014 RMK A01 T01800103  RH  062%=      5-min Rain = 0
KFLS 120405Z 13005KT 18/10 A3014 RMK A01 T01810102  RH  061%=      5-min Rain = 0
KFLS 120410Z 13005KT 18/10 A3014 RMK A01 T01810101  RH  061%=      5-min Rain = 0
KFLS 120415Z 15005KT 18/10 A3014 RMK A01 T01790101  RH  061%=      5-min Rain = 0
KFLS 120420Z 15006KT 18/10 A3014 RMK A01 T01750101  RH  063%=      5-min Rain = 0
KFLS 120425Z 15006KT 17/10 A3014 RMK A01 T01740100  RH  063%=      5-min Rain = 0
KFLS 120430Z 15005KT 17/10 A3014 RMK A01 T01740101  RH  063%=      5-min Rain = 0
KFLS 120435Z 15005KT 17/10 A3014 RMK A01 T01740101  RH  063%=      5-min Rain = 0
KFLS 120440Z 16005KT 17/10 A3014 RMK A01 T01730100  RH  063%=      5-min Rain = 0
KFLS 120445Z 15005KT 17/10 A3014 RMK A01 T01720100  RH  064%=      5-min Rain = 0
KFLS 120450Z 15005KT 17/10 A3014 RMK A01 T01730100  RH  063%=      5-min Rain = 0
KFLS 120455Z 14006KT 17/10 A3014 RMK A01 T01730099  RH  063%=      5-min Rain = 0

Page generated in 0.0248 seconds.